Time;durP1;ratioP1;P1;durP2;ratioP2;P2;SDS_P1;SDS_P2;PMS_P1;PMS_P2;Temp;Humidity;BMP_temperature;BMP_pressure;BME280_temperature;BME280_humidity;BME280_pressure;Samples;Min_cycle;Max_cycle;Signal;HPM_P1;HPM_P2
2022/12/09 00:01:57;;;;;;;14.83;11.20;;;2.20;98.10;;;;;;4991685;28;20199;-83
2022/12/09 00:04:24;;;;;;;11.77;10.43;;;2.20;97.70;;;;;;4986848;28;20249;-83
2022/12/09 00:06:49;;;;;;;11.73;10.53;;;2.20;97.60;;;;;;4982585;28;20254;-84
2022/12/09 00:09:15;;;;;;;12.03;9.67;;;2.20;97.50;;;;;;4994012;28;20198;-84
2022/12/09 00:11:42;;;;;;;11.40;10.20;;;2.20;97.80;;;;;;4991111;28;20686;-84
2022/12/09 00:14:09;;;;;;;11.93;10.10;;;2.20;97.90;;;;;;4989838;28;20206;-86
2022/12/09 00:16:34;;;;;;;12.67;11.20;;;2.20;97.60;;;;;;5001043;28;20230;-87
2022/12/09 00:19:00;;;;;;;13.33;10.43;;;2.20;97.10;;;;;;4999389;28;20213;-87
2022/12/09 00:21:31;;;;;;;13.50;11.43;;;2.00;96.20;;;;;;5008814;28;20201;-85
2022/12/09 00:23:59;;;;;;;12.33;11.03;;;1.80;97.60;;;;;;4998269;28;20234;-82
2022/12/09 00:26:26;;;;;;;12.53;10.43;;;1.70;98.30;;;;;;4984428;28;20640;-83
2022/12/09 00:28:52;;;;;;;11.83;10.57;;;1.80;99.20;;;;;;4982880;28;20189;-84
2022/12/09 00:31:23;;;;;;;11.50;10.33;;;1.70;99.60;;;;;;4993228;28;20661;-83
2022/12/09 00:33:54;;;;;;;12.47;9.97;;;1.80;99.40;;;;;;4980174;28;20213;-85
2022/12/09 00:36:21;;;;;;;13.57;10.97;;;1.80;99.00;;;;;;4981916;28;20197;-83
2022/12/09 00:38:47;;;;;;;13.93;10.90;;;1.80;98.60;;;;;;4989778;28;20182;-83
2022/12/09 00:41:13;;;;;;;11.60;10.07;;;1.80;98.20;;;;;;4992385;28;20290;-84
2022/12/09 00:43:40;;;;;;;12.93;11.30;;;1.80;98.30;;;;;;4982713;28;20205;-83
2022/12/09 00:46:06;;;;;;;11.10;10.00;;;1.80;97.50;;;;;;4987414;28;20219;-83
2022/12/09 00:48:37;;;;;;;13.40;9.50;;;1.60;97.50;;;;;;4986472;28;20246;-84
2022/12/09 00:51:04;;;;;;;11.07;9.50;;;1.60;98.40;;;;;;4982675;28;20221;-84
2022/12/09 00:53:29;;;;;;;13.37;11.20;;;1.50;98.80;;;;;;4983612;28;20210;-85
2022/12/09 00:55:55;;;;;;;11.23;9.93;;;1.40;97.10;;;;;;4986929;28;20214;-83
2022/12/09 00:58:21;;;;;;;12.67;9.30;;;1.40;98.90;;;;;;4992604;28;20197;-84
2022/12/09 01:00:47;;;;;;;10.13;9.17;;;1.40;99.00;;;;;;5011724;28;20201;-84
2022/12/09 01:03:14;;;;;;;11.27;10.17;;;1.50;99.40;;;;;;4986307;28;20621;-85
2022/12/09 01:05:40;;;;;;;10.57;9.47;;;1.60;98.90;;;;;;4985307;28;20182;-87
2022/12/09 01:08:07;;;;;;;10.73;9.53;;;1.60;98.60;;;;;;4984586;28;20197;-86
2022/12/09 01:10:34;;;;;;;12.00;8.93;;;1.60;98.20;;;;;;4984775;28;20245;-85
2022/12/09 01:12:59;;;;;;;10.00;8.73;;;1.70;98.70;;;;;;4979271;28;20228;-85
2022/12/09 01:15:25;;;;;;;10.97;9.10;;;1.70;98.40;;;;;;4998793;28;20720;-84
2022/12/09 01:17:51;;;;;;;10.43;9.40;;;1.70;98.10;;;;;;4982212;28;20195;-83
2022/12/09 01:20:16;;;;;;;14.17;9.80;;;1.70;97.00;;;;;;5000601;28;20203;-84
2022/12/09 01:22:42;;;;;;;11.07;9.90;;;1.60;95.70;;;;;;4990426;28;20200;-84
2022/12/09 01:25:08;;;;;;;10.27;9.23;;;1.50;97.10;;;;;;4986068;28;20207;-83
2022/12/09 01:27:34;;;;;;;10.57;9.23;;;1.50;97.80;;;;;;4993334;28;20449;-85
2022/12/09 01:29:59;;;;;;;10.27;8.83;;;1.60;97.80;;;;;;4984783;28;20740;-85
2022/12/09 01:32:25;;;;;;;10.87;9.70;;;1.60;97.90;;;;;;4986696;28;20193;-85
2022/12/09 01:34:51;;;;;;;11.07;9.97;;;1.60;97.60;;;;;;4988564;28;20226;-86
2022/12/09 01:37:17;;;;;;;11.50;10.13;;;1.60;97.40;;;;;;4981053;28;20592;-84
2022/12/09 01:39:42;;;;;;;12.10;9.73;;;1.60;97.20;;;;;;4983894;28;20191;-84
2022/12/09 01:42:19;;;;;;;11.07;9.13;;;1.70;98.10;;;;;;4980801;28;20183;-83
2022/12/09 01:45:23;;;;;;;9.00;8.10;;;1.70;97.60;;;;;;4985726;28;20215;-84
2022/12/09 01:48:01;;;;;;;10.30;8.83;;;1.70;97.90;;;;;;4978190;28;20287;-84
2022/12/09 01:50:28;;;;;;;12.60;9.67;;;1.60;96.70;;;;;;4985755;28;20210;-84
2022/12/09 01:52:55;;;;;;;10.10;8.70;;;1.50;97.30;;;;;;4981744;28;20190;-84
2022/12/09 01:55:21;;;;;;;10.53;9.13;;;1.50;97.50;;;;;;4982003;28;20559;-84
2022/12/09 01:57:47;;;;;;;10.53;8.77;;;1.50;96.50;;;;;;4997452;28;20218;-85
2022/12/09 02:00:13;;;;;;;10.33;8.57;;;1.30;95.60;;;;;;4989530;28;20213;-85
2022/12/09 02:02:40;;;;;;;9.70;8.50;;;1.00;96.50;;;;;;4989780;28;20180;-83
2022/12/09 02:05:06;;;;;;;9.47;7.83;;;0.80;98.70;;;;;;4989583;28;20198;-83
2022/12/09 02:07:33;;;;;;;9.57;7.73;;;0.90;99.90;;;;;;4996926;28;20206;-84
2022/12/09 02:09:59;;;;;;;9.50;8.23;;;1.00;99.90;;;;;;4986661;28;20201;-83
2022/12/09 02:13:02;;;;;;;8.80;7.87;;;1.10;99.90;;;;;;4981563;28;20215;-83
2022/12/09 02:15:52;;;;;;;8.23;7.23;;;1.20;99.80;;;;;;4980727;28;20194;-84
2022/12/09 02:18:28;;;;;;;9.73;8.23;;;1.30;99.30;;;;;;4975177;28;20195;-85
2022/12/09 02:21:08;;;;;;;10.20;7.93;;;1.20;98.10;;;;;;4982172;28;20213;-84
2022/12/09 02:24:05;;;;;;;9.27;8.33;;;1.20;98.50;;;;;;4979609;28;20202;-84
2022/12/09 02:26:45;;;;;;;9.83;7.90;;;1.20;98.00;;;;;;4973741;28;20209;-84
2022/12/09 02:29:24;;;;;;;8.83;7.83;;;1.10;98.00;;;;;;4978997;28;20206;-84
2022/12/09 02:32:27;;;;;;;9.27;8.37;;;1.00;97.60;;;;;;4995109;28;20246;-83
2022/12/09 02:35:07;;;;;;;11.83;8.07;;;0.90;97.10;;;;;;4991161;28;20220;-84
2022/12/09 02:37:41;;;;;;;9.00;7.77;;;0.60;97.30;;;;;;4992126;28;20190;-84
2022/12/09 02:40:15;;;;;;;11.23;8.50;;;0.50;99.90;;;;;;4978059;28;20210;-85
2022/12/09 02:42:45;;;;;;;9.57;8.10;;;0.70;99.90;;;;;;4977211;28;20183;-85
2022/12/09 02:45:12;;;;;;;9.53;8.60;;;0.80;99.90;;;;;;5004629;28;20218;-85
2022/12/09 02:47:43;;;;;;;8.43;7.63;;;0.80;99.90;;;;;;5009967;28;20206;-86
2022/12/09 02:50:12;;;;;;;8.93;7.70;;;0.90;99.40;;;;;;5001077;28;20190;-83
2022/12/09 02:52:39;;;;;;;9.30;8.03;;;0.80;97.90;;;;;;4983445;28;20175;-84
2022/12/09 02:55:08;;;;;;;9.57;8.07;;;0.60;98.00;;;;;;4983414;28;20269;-83
2022/12/09 02:57:35;;;;;;;9.87;8.23;;;0.60;99.80;;;;;;4987866;28;20323;-83
2022/12/09 03:00:04;;;;;;;8.67;7.80;;;0.60;99.90;;;;;;4983894;28;20210;-83
2022/12/09 03:02:45;;;;;;;9.40;7.90;;;0.70;99.90;;;;;;4979064;28;20183;-84
2022/12/09 03:05:19;;;;;;;9.70;8.20;;;0.70;99.90;;;;;;4992689;28;20221;-86
2022/12/09 03:08:09;;;;;;;9.33;8.33;;;0.80;99.70;;;;;;4977552;28;20574;-84
2022/12/09 03:10:42;;;;;;;9.27;8.30;;;0.80;99.70;;;;;;4983768;28;20889;-84
2022/12/09 03:13:42;;;;;;;9.57;7.90;;;0.90;99.60;;;;;;4978407;28;20214;-84
2022/12/09 03:16:46;;;;;;;9.17;7.90;;;1.00;99.30;;;;;;4989743;28;20190;-86
2022/12/09 03:19:21;;;;;;;9.50;8.00;;;1.10;99.20;;;;;;4992601;28;20238;-87
2022/12/09 03:21:49;;;;;;;11.03;8.00;;;1.10;98.70;;;;;;4986448;28;20262;-86
2022/12/09 03:24:21;;;;;;;8.27;7.43;;;1.10;98.80;;;;;;4980262;28;20833;-83
2022/12/09 03:26:49;;;;;;;9.03;7.23;;;1.10;98.40;;;;;;4985126;28;20237;-84
2022/12/09 03:29:18;;;;;;;9.67;8.30;;;1.10;97.50;;;;;;4983404;28;20648;-84
2022/12/09 03:31:45;;;;;;;9.17;7.67;;;1.00;96.20;;;;;;4983390;28;20948;-82
2022/12/09 03:34:15;;;;;;;8.20;7.33;;;0.80;96.40;;;;;;4983080;28;20352;-85
2022/12/09 03:36:43;;;;;;;7.87;7.07;;;0.70;97.00;;;;;;4987581;28;20191;-83
2022/12/09 03:39:13;;;;;;;9.10;7.60;;;0.70;98.50;;;;;;4987553;28;20179;-86
2022/12/09 03:41:52;;;;;;;8.67;7.80;;;0.70;99.50;;;;;;4984890;28;20187;-83
2022/12/09 03:44:25;;;;;;;9.13;8.17;;;0.80;99.70;;;;;;4995626;28;20237;-83
2022/12/09 03:46:50;;;;;;;8.47;7.13;;;0.90;99.40;;;;;;4981255;28;20187;-83
2022/12/09 03:49:17;;;;;;;7.83;6.77;;;1.00;98.30;;;;;;4981601;28;20673;-83
2022/12/09 03:52:03;;;;;;;7.73;7.03;;;0.90;96.90;;;;;;4976476;28;20269;-84
2022/12/09 03:54:33;;;;;;;8.23;7.10;;;0.70;95.80;;;;;;4976945;28;20252;-85
2022/12/09 03:57:00;;;;;;;8.03;7.23;;;0.50;95.90;;;;;;4986686;28;20187;-83
2022/12/09 03:59:30;;;;;;;9.70;7.80;;;0.30;97.40;;;;;;4977672;28;20194;-84
2022/12/09 04:01:56;;;;;;;8.20;6.50;;;0.20;99.40;;;;;;4974698;28;20191;-84
2022/12/09 04:04:22;;;;;;;7.93;6.67;;;0.40;99.90;;;;;;5002857;28;20214;-83
2022/12/09 04:06:51;;;;;;;7.10;6.40;;;0.30;99.90;;;;;;4985717;28;20221;-84
2022/12/09 04:09:16;;;;;;;8.57;6.30;;;0.40;99.90;;;;;;4973906;28;20202;-84
2022/12/09 04:11:42;;;;;;;7.47;6.20;;;0.60;99.90;;;;;;4981298;28;20227;-81
2022/12/09 04:14:08;;;;;;;6.83;6.13;;;0.60;99.90;;;;;;4978606;28;20782;-84
2022/12/09 04:16:34;;;;;;;7.23;6.43;;;0.60;99.60;;;;;;4984549;28;20198;-84
2022/12/09 04:18:59;;;;;;;6.73;6.07;;;0.60;98.40;;;;;;4995168;28;20203;-83
2022/12/09 04:21:25;;;;;;;7.27;6.53;;;0.60;98.40;;;;;;4991754;28;20182;-86
2022/12/09 04:23:50;;;;;;;8.37;6.67;;;0.60;98.60;;;;;;4984349;28;20222;-85
2022/12/09 04:26:20;;;;;;;8.70;6.67;;;0.50;96.20;;;;;;4980136;28;20194;-84
2022/12/09 04:28:46;;;;;;;8.80;7.13;;;0.30;96.30;;;;;;4991050;28;20194;-84
2022/12/09 04:31:14;;;;;;;7.80;7.00;;;0.00;97.30;;;;;;4987706;28;20205;-84
2022/12/09 04:33:40;;;;;;;8.83;6.90;;;-0.10;98.50;;;;;;4976435;28;20874;-84
2022/12/09 04:36:10;;;;;;;7.27;6.57;;;-0.30;99.40;;;;;;4980027;28;20190;-83
2022/12/09 04:38:35;;;;;;;8.30;7.10;;;-0.40;99.90;;;;;;4974470;28;20202;-83
2022/12/09 04:41:02;;;;;;;7.70;6.90;;;-0.50;99.90;;;;;;4976595;28;20374;-83
2022/12/09 04:43:28;;;;;;;7.40;6.57;;;-0.50;99.90;;;;;;4981041;28;20290;-85
2022/12/09 04:45:54;;;;;;;6.87;5.70;;;-0.50;99.90;;;;;;4978090;28;20305;-83
2022/12/09 04:48:19;;;;;;;6.83;6.10;;;-0.40;99.90;;;;;;4978277;28;20191;-84
2022/12/09 04:50:45;;;;;;;7.03;6.33;;;-0.30;99.90;;;;;;4987917;28;20747;-84
2022/12/09 04:53:10;;;;;;;7.63;6.33;;;-0.20;99.90;;;;;;4989419;28;20198;-84
2022/12/09 04:55:36;;;;;;;7.87;6.50;;;-0.20;99.90;;;;;;4989093;28;20262;-85
2022/12/09 04:58:02;;;;;;;7.00;6.30;;;-0.20;99.90;;;;;;4981268;28;20191;-84
2022/12/09 05:00:28;;;;;;;7.37;6.50;;;-0.20;99.90;;;;;;4991104;28;20292;-84
2022/12/09 05:02:54;;;;;;;9.70;7.90;;;-0.20;99.90;;;;;;4985274;28;20195;-83
2022/12/09 05:05:19;;;;;;;8.83;7.93;;;-0.20;99.90;;;;;;4979857;28;20187;-84
2022/12/09 05:07:45;;;;;;;19.63;14.80;;;-0.20;99.90;;;;;;4979606;28;20683;-84
2022/12/09 05:10:11;;;;;;;14.03;12.63;;;-0.30;99.90;;;;;;4981465;28;20223;-84
2022/12/09 05:12:36;;;;;;;10.90;9.70;;;-0.30;99.90;;;;;;4985871;28;20214;-84
2022/12/09 05:15:02;;;;;;;12.53;11.43;;;-0.30;99.90;;;;;;4980934;28;20274;-84
2022/12/09 05:17:28;;;;;;;9.07;7.60;;;-0.30;99.90;;;;;;4979663;28;20229;-84
2022/12/09 05:19:53;;;;;;;9.63;8.53;;;-0.20;99.90;;;;;;4990660;28;20330;-84
2022/12/09 05:22:19;;;;;;;9.37;8.40;;;-0.20;99.90;;;;;;4981971;28;20277;-84
2022/12/09 05:24:46;;;;;;;9.97;8.27;;;-0.20;99.90;;;;;;4983366;28;20214;-85
2022/12/09 05:27:13;;;;;;;10.10;7.80;;;-0.20;99.90;;;;;;4980740;28;20183;-84
2022/12/09 05:29:38;;;;;;;8.90;7.80;;;-0.20;99.90;;;;;;4986442;28;20221;-84
2022/12/09 05:32:04;;;;;;;11.13;10.03;;;-0.20;99.90;;;;;;4979754;28;20254;-84
2022/12/09 05:34:30;;;;;;;9.63;8.37;;;-0.10;99.90;;;;;;4979374;28;20666;-85
2022/12/09 05:36:55;;;;;;;9.63;8.63;;;-0.10;99.90;;;;;;4978664;28;20203;-84
2022/12/09 05:39:21;;;;;;;9.43;8.23;;;-0.30;99.90;;;;;;5008648;28;20281;-84
2022/12/09 05:41:47;;;;;;;11.07;8.70;;;-0.30;99.90;;;;;;4980081;28;20186;-84
2022/12/09 05:44:13;;;;;;;9.73;8.43;;;-0.40;99.90;;;;;;4977941;28;20269;-87
2022/12/09 05:46:39;;;;;;;10.90;9.00;;;-0.50;99.90;;;;;;4978132;28;20310;-84
2022/12/09 05:49:05;;;;;;;12.70;9.23;;;-0.50;99.90;;;;;;4988545;28;20230;-85
2022/12/09 05:51:31;;;;;;;8.43;7.53;;;-0.50;99.90;;;;;;4987178;28;20225;-84
2022/12/09 05:54:00;;;;;;;11.20;10.00;;;-0.50;99.90;;;;;;4983051;28;20207;-83
2022/12/09 05:56:25;;;;;;;12.90;10.37;;;-0.40;99.90;;;;;;4980547;28;20202;-84
2022/12/09 05:58:52;;;;;;;13.97;10.37;;;-0.40;99.90;;;;;;4980166;28;20198;-85
2022/12/09 06:01:18;;;;;;;10.90;8.87;;;-0.30;99.90;;;;;;4989162;28;20203;-83
2022/12/09 06:03:49;;;;;;;11.77;10.57;;;-0.40;99.90;;;;;;4987893;28;20214;-84
2022/12/09 06:06:16;;;;;;;30.33;20.53;;;-0.40;99.90;;;;;;4982241;28;20723;-84
2022/12/09 06:08:43;;;;;;;51.37;30.33;;;-0.40;99.90;;;;;;4980352;28;20218;-84
2022/12/09 06:11:12;;;;;;;46.00;28.17;;;-0.30;99.90;;;;;;4990257;28;20250;-84
2022/12/09 06:13:37;;;;;;;50.07;29.63;;;-0.20;99.90;;;;;;4999535;28;20211;-83
2022/12/09 06:16:04;;;;;;;38.07;23.67;;;-0.10;99.90;;;;;;4978957;28;20197;-84
2022/12/09 06:18:30;;;;;;;48.77;31.33;;;-0.10;99.90;;;;;;4985288;28;20212;-83
2022/12/09 06:20:56;;;;;;;16.27;12.03;;;-0.20;99.90;;;;;;4978938;28;20198;-85
2022/12/09 06:23:21;;;;;;;12.60;10.73;;;-0.30;99.90;;;;;;4975016;28;20211;-84
2022/12/09 06:25:47;;;;;;;12.70;9.93;;;-0.30;99.90;;;;;;4994802;28;20657;-84
2022/12/09 06:28:13;;;;;;;14.43;10.67;;;-0.20;99.90;;;;;;4977992;28;20328;-84
2022/12/09 06:30:39;;;;;;;12.37;10.30;;;-0.30;99.90;;;;;;4978332;28;20218;-84
2022/12/09 06:33:06;;;;;;;12.33;11.10;;;-0.20;99.90;;;;;;4978808;28;20215;-84
2022/12/09 06:35:32;;;;;;;14.13;9.23;;;-0.20;99.90;;;;;;4979214;28;20199;-87
2022/12/09 06:37:58;;;;;;;13.10;11.23;;;-0.20;99.90;;;;;;4992716;28;20212;-84
2022/12/09 06:40:24;;;;;;;12.57;10.00;;;-0.30;99.90;;;;;;4985562;28;20278;-86
2022/12/09 06:42:50;;;;;;;11.40;10.17;;;-0.30;99.90;;;;;;4982281;28;20194;-83
2022/12/09 06:45:17;;;;;;;14.13;11.33;;;-0.30;99.90;;;;;;4986320;28;20575;-85
2022/12/09 06:47:43;;;;;;;15.33;13.77;;;-0.30;99.90;;;;;;4993349;28;20502;-84
2022/12/09 06:50:08;;;;;;;13.87;12.47;;;-0.30;99.90;;;;;;4996998;28;20190;-85
2022/12/09 06:52:36;;;;;;;14.57;11.83;;;-0.30;99.90;;;;;;4992213;28;20257;-85
2022/12/09 06:55:02;;;;;;;13.73;11.00;;;-0.20;99.90;;;;;;4983227;28;20199;-84
2022/12/09 06:57:28;;;;;;;13.93;11.10;;;-0.20;99.90;;;;;;4989215;28;20569;-86
2022/12/09 06:59:53;;;;;;;11.67;10.40;;;-0.20;99.90;;;;;;4986403;28;20329;-85
2022/12/09 07:02:20;;;;;;;10.90;9.80;;;-0.30;99.90;;;;;;4975205;28;20281;-84
2022/12/09 07:04:46;;;;;;;11.03;9.50;;;-0.30;99.90;;;;;;4972616;28;20218;-84
2022/12/09 07:07:11;;;;;;;10.90;9.80;;;-0.30;99.90;;;;;;4984366;28;20190;-84
2022/12/09 07:09:37;;;;;;;14.13;9.93;;;-0.20;99.90;;;;;;4986859;28;20194;-84
2022/12/09 07:12:03;;;;;;;11.27;10.10;;;-0.10;99.90;;;;;;4997148;28;20206;-87
2022/12/09 07:14:29;;;;;;;16.03;10.80;;;-0.10;99.90;;;;;;4997339;28;20207;-85
2022/12/09 07:16:54;;;;;;;13.23;10.27;;;-0.20;99.90;;;;;;4992332;28;20198;-84
2022/12/09 07:19:21;;;;;;;10.40;9.30;;;-0.30;99.90;;;;;;4984987;28;20430;-83
2022/12/09 07:21:49;;;;;;;16.03;10.37;;;-0.30;99.90;;;;;;4980269;28;20187;-85
2022/12/09 07:24:15;;;;;;;13.97;9.30;;;-0.40;99.90;;;;;;4972033;28;20202;-85
2022/12/09 07:26:40;;;;;;;11.03;9.83;;;-0.40;99.90;;;;;;4973051;28;20657;-85
2022/12/09 07:29:07;;;;;;;10.50;9.23;;;-0.40;99.90;;;;;;4983210;28;20179;-84
2022/12/09 07:31:33;;;;;;;12.20;10.30;;;-0.40;99.90;;;;;;4979806;28;20206;-86
2022/12/09 07:33:59;;;;;;;11.73;10.27;;;-0.40;99.90;;;;;;4974873;28;20707;-86
2022/12/09 07:36:27;;;;;;;10.87;9.67;;;-0.30;99.90;;;;;;4975019;28;20186;-84
2022/12/09 07:39:05;;;;;;;14.23;10.93;;;-0.40;99.90;;;;;;4973649;28;20245;-85
2022/12/09 07:41:31;;;;;;;13.80;11.00;;;-0.40;99.90;;;;;;4973501;28;20183;-84
2022/12/09 07:43:57;;;;;;;12.37;9.60;;;-0.40;99.90;;;;;;4978727;28;20199;-84
2022/12/09 07:46:26;;;;;;;12.47;10.17;;;-0.40;99.90;;;;;;4982075;28;20199;-86
2022/12/09 07:48:52;;;;;;;12.10;10.10;;;-0.40;99.90;;;;;;4984205;28;20226;-85
2022/12/09 07:51:17;;;;;;;13.60;10.10;;;-0.30;99.90;;;;;;4978041;28;20206;-84
2022/12/09 07:53:43;;;;;;;11.27;9.33;;;-0.30;99.90;;;;;;4997900;28;20214;-85
2022/12/09 07:56:10;;;;;;;13.47;10.57;;;-0.30;99.90;;;;;;4980344;28;20214;-85
2022/12/09 07:58:37;;;;;;;12.13;9.93;;;-0.20;99.90;;;;;;4984984;28;20186;-86
2022/12/09 08:01:12;;;;;;;12.03;10.13;;;-0.10;99.90;;;;;;4980616;28;20183;-85
2022/12/09 08:03:41;;;;;;;12.20;10.10;;;0.00;99.90;;;;;;4978370;28;20225;-84
2022/12/09 08:06:12;;;;;;;15.47;10.83;;;0.10;99.90;;;;;;4979176;28;20190;-84
2022/12/09 08:08:38;;;;;;;12.23;10.43;;;0.10;99.90;;;;;;4983486;28;20213;-84
2022/12/09 08:11:20;;;;;;;12.23;10.20;;;0.10;99.90;;;;;;4983698;28;20210;-85
2022/12/09 08:13:47;;;;;;;13.73;10.30;;;0.10;99.90;;;;;;4984555;28;20294;-84
2022/12/09 08:16:16;;;;;;;15.13;10.57;;;0.10;99.90;;;;;;4980449;28;20187;-82
2022/12/09 08:18:42;;;;;;;11.70;10.40;;;0.10;99.90;;;;;;4981533;28;20206;-85
2022/12/09 08:21:15;;;;;;;11.63;10.43;;;0.00;99.90;;;;;;4987397;28;20359;-85
2022/12/09 08:23:41;;;;;;;12.83;10.70;;;0.10;99.90;;;;;;4999233;28;20209;-85
2022/12/09 08:26:08;;;;;;;12.40;10.30;;;0.10;99.90;;;;;;4990893;28;20213;-85
2022/12/09 08:28:34;;;;;;;12.40;10.97;;;0.10;99.90;;;;;;4986993;28;20194;-85
2022/12/09 08:31:09;;;;;;;11.77;10.03;;;0.10;99.90;;;;;;4980575;28;20214;-84
2022/12/09 08:33:35;;;;;;;16.37;10.73;;;0.20;99.90;;;;;;4985613;28;20217;-86
2022/12/09 08:36:02;;;;;;;11.87;10.57;;;0.20;99.90;;;;;;4998708;28;20728;-86
2022/12/09 08:38:27;;;;;;;12.40;11.07;;;0.20;99.90;;;;;;4985827;28;20187;-85
2022/12/09 08:40:53;;;;;;;14.47;10.63;;;0.20;99.90;;;;;;4982164;28;20195;-85
2022/12/09 08:43:19;;;;;;;13.17;9.90;;;0.30;99.90;;;;;;4987538;28;20215;-86
2022/12/09 08:45:44;;;;;;;14.13;9.93;;;0.30;99.90;;;;;;4981646;28;20245;-84
2022/12/09 08:48:10;;;;;;;13.03;11.50;;;0.20;99.90;;;;;;4997194;28;20191;-85
2022/12/09 08:50:35;;;;;;;12.60;11.03;;;0.30;99.90;;;;;;4985542;28;20193;-85
2022/12/09 08:53:01;;;;;;;15.13;11.07;;;0.30;99.90;;;;;;4981539;28;20608;-85
2022/12/09 08:55:27;;;;;;;14.10;10.50;;;0.40;99.90;;;;;;4982461;28;20183;-86
2022/12/09 08:57:53;;;;;;;11.47;10.23;;;0.40;99.90;;;;;;4981071;28;20194;-85
2022/12/09 09:00:19;;;;;;;16.23;10.47;;;0.50;99.90;;;;;;4985309;28;20186;-83
2022/12/09 09:02:44;;;;;;;11.20;9.93;;;0.60;99.90;;;;;;4980765;28;20194;-84
2022/12/09 09:05:10;;;;;;;11.07;9.87;;;0.70;99.90;;;;;;4990629;28;20203;-84
2022/12/09 09:07:36;;;;;;;12.13;10.27;;;0.80;99.90;;;;;;4987699;28;20194;-84
2022/12/09 09:10:02;;;;;;;11.83;10.60;;;0.80;99.90;;;;;;4984529;28;20268;-85
2022/12/09 09:12:29;;;;;;;12.73;9.83;;;1.00;99.80;;;;;;4993625;28;20242;-85
2022/12/09 09:14:54;;;;;;;12.47;9.77;;;1.10;99.80;;;;;;4987870;28;20206;-85
2022/12/09 09:17:21;;;;;;;11.60;10.07;;;1.20;98.30;;;;;;4990611;28;20579;-85
2022/12/09 09:19:47;;;;;;;15.37;11.03;;;1.30;98.40;;;;;;4984223;28;20230;-85
2022/12/09 09:22:12;;;;;;;11.60;10.27;;;1.30;98.40;;;;;;4989272;28;20183;-86
2022/12/09 09:24:38;;;;;;;13.10;10.60;;;1.40;97.60;;;;;;4993040;28;20283;-83
2022/12/09 09:27:04;;;;;;;16.90;11.63;;;1.40;97.50;;;;;;4986318;28;20709;-85
2022/12/09 09:29:30;;;;;;;17.97;14.07;;;1.40;96.50;;;;;;4988859;28;20183;-85
2022/12/09 09:31:56;;;;;;;19.30;13.37;;;1.40;96.50;;;;;;4995358;28;20203;-84
2022/12/09 09:34:25;;;;;;;13.17;11.73;;;1.40;97.60;;;;;;4987750;28;20213;-84
2022/12/09 09:36:51;;;;;;;12.20;10.70;;;1.50;97.60;;;;;;4983495;28;20257;-83
2022/12/09 09:39:18;;;;;;;14.27;10.80;;;1.60;97.70;;;;;;4991425;28;20196;-84
2022/12/09 09:42:00;;;;;;;13.83;11.57;;;1.60;96.60;;;;;;5011038;28;20190;-84
2022/12/09 09:44:31;;;;;;;11.33;10.13;;;1.50;96.60;;;;;;4997850;28;20225;-85
2022/12/09 09:46:58;;;;;;;15.13;11.30;;;1.50;96.90;;;;;;4997281;28;20194;-85
2022/12/09 09:50:11;;;;;;;12.67;11.37;;;1.50;97.60;;;;;;4990628;28;20191;-86
2022/12/09 09:52:39;;;;;;;12.77;11.37;;;1.60;97.30;;;;;;4979989;28;20234;-85
2022/12/09 09:55:14;;;;;;;12.30;11.03;;;1.70;97.00;;;;;;4987865;28;20234;-84
2022/12/09 09:57:57;;;;;;;14.67;11.93;;;1.80;96.80;;;;;;4995484;28;20194;-84
2022/12/09 10:00:31;;;;;;;14.10;11.40;;;1.70;96.90;;;;;;4985575;28;20197;-85
2022/12/09 10:03:08;;;;;;;15.43;11.40;;;1.70;97.80;;;;;;4988992;28;20192;-82
2022/12/09 10:05:48;;;;;;;13.90;12.23;;;1.60;97.90;;;;;;4989894;28;20276;-84
2022/12/09 10:08:22;;;;;;;13.63;12.27;;;1.60;97.70;;;;;;4991857;28;20253;-85
2022/12/09 10:11:10;;;;;;;15.20;13.23;;;1.60;97.80;;;;;;4979868;28;20688;-84
2022/12/09 10:13:45;;;;;;;14.37;12.87;;;1.70;98.30;;;;;;4988460;28;20207;-83
2022/12/09 10:16:16;;;;;;;14.10;12.60;;;1.60;98.50;;;;;;4988498;28;20187;-84
2022/12/09 10:19:01;;;;;;;24.23;21.70;;;1.60;98.50;;;;;;4996743;28;20210;-84
2022/12/09 10:21:29;;;;;;;24.23;20.37;;;1.60;98.70;;;;;;4980572;28;20747;-84
2022/12/09 10:23:57;;;;;;;18.47;16.47;;;1.50;98.90;;;;;;4998892;28;20211;-84
2022/12/09 10:26:26;;;;;;;16.87;15.00;;;1.60;99.30;;;;;;4986237;28;20191;-84
2022/12/09 10:29:16;;;;;;;16.77;14.67;;;1.70;98.70;;;;;;4987025;28;20205;-84
2022/12/09 10:31:42;;;;;;;14.40;12.90;;;1.80;98.20;;;;;;4987842;28;20462;-84
2022/12/09 10:34:10;;;;;;;16.50;13.70;;;1.90;97.90;;;;;;5005391;28;20267;-85
2022/12/09 10:36:37;;;;;;;16.33;12.80;;;2.00;97.20;;;;;;4985093;28;20198;-84
2022/12/09 10:39:04;;;;;;;15.77;13.87;;;2.10;96.90;;;;;;4996190;28;20193;-85
2022/12/09 10:44:35;;;;;;;17.80;14.57;;;2.30;94.50;;;;;;4994631;28;20237;-84
2022/12/09 10:47:04;;;;;;;20.13;16.23;;;2.30;95.20;;;;;;4994616;28;20194;-85
2022/12/09 10:49:32;;;;;;;18.77;15.70;;;2.30;95.40;;;;;;4992883;28;20226;-82
2022/12/09 10:51:58;;;;;;;17.93;14.63;;;2.30;95.20;;;;;;4982912;28;20246;-84
2022/12/09 10:54:32;;;;;;;14.93;13.43;;;2.40;94.40;;;;;;4984914;28;20313;-83
2022/12/09 10:57:03;;;;;;;15.70;13.77;;;2.50;95.70;;;;;;4986634;28;20600;-84
2022/12/09 10:59:29;;;;;;;16.40;13.73;;;2.60;94.50;;;;;;4977009;28;20637;-83
2022/12/09 11:01:59;;;;;;;15.63;13.83;;;2.60;93.40;;;;;;4990901;28;20194;-84
2022/12/09 11:04:27;;;;;;;16.90;14.83;;;2.50;93.10;;;;;;4984450;28;20214;-84
2022/12/09 11:07:00;;;;;;;16.53;14.93;;;2.60;93.50;;;;;;4991723;28;20708;-84
2022/12/09 11:09:37;;;;;;;21.17;15.87;;;2.60;93.50;;;;;;4977745;28;20187;-84
2022/12/09 11:12:05;;;;;;;16.67;14.97;;;2.60;93.10;;;;;;4982063;28;20218;-84
2022/12/09 11:14:47;;;;;;;17.93;14.03;;;2.60;93.20;;;;;;4978915;28;20225;-86
2022/12/09 11:17:14;;;;;;;15.33;13.70;;;2.70;93.40;;;;;;4996978;28;20206;-83
2022/12/09 11:19:40;;;;;;;16.30;14.60;;;2.80;92.90;;;;;;4984900;28;20572;-82
2022/12/09 11:22:37;;;;;;;15.97;14.27;;;2.80;92.00;;;;;;4985070;28;20267;-84
2022/12/09 11:25:14;;;;;;;18.20;14.20;;;2.80;91.80;;;;;;4976483;28;20214;-83
2022/12/09 11:27:48;;;;;;;19.57;13.77;;;2.80;93.10;;;;;;4982006;28;20190;-84
2022/12/09 11:30:20;;;;;;;15.77;13.97;;;2.80;91.20;;;;;;4988314;28;20874;-83
2022/12/09 11:33:06;;;;;;;14.93;13.43;;;2.90;91.40;;;;;;4981975;28;20245;-84
2022/12/09 11:35:44;;;;;;;14.53;13.07;;;3.00;90.30;;;;;;4978001;28;20672;-83
2022/12/09 11:38:21;;;;;;;14.90;13.33;;;3.00;91.40;;;;;;4990329;28;20190;-83
2022/12/09 11:40:59;;;;;;;15.57;13.97;;;3.10;91.30;;;;;;4977518;28;20191;-84
2022/12/09 11:43:45;;;;;;;16.03;13.43;;;3.20;89.20;;;;;;4980700;28;20327;-84
2022/12/09 11:46:13;;;;;;;15.83;13.67;;;3.10;89.20;;;;;;4978551;28;20270;-84
2022/12/09 11:48:42;;;;;;;17.20;13.60;;;3.00;90.00;;;;;;4977227;28;20194;-85
2022/12/09 11:51:22;;;;;;;16.20;14.50;;;3.00;90.40;;;;;;4974178;28;20217;-86
2022/12/09 11:53:49;;;;;;;15.27;13.60;;;3.10;90.30;;;;;;4982635;28;20676;-83
2022/12/09 11:56:19;;;;;;;19.23;14.13;;;3.10;89.80;;;;;;4981127;28;20197;-84
2022/12/09 11:59:08;;;;;;;16.37;14.57;;;3.10;89.80;;;;;;4981961;28;20218;-85
2022/12/09 12:01:49;;;;;;;15.33;13.60;;;3.10;89.70;;;;;;4979567;28;20642;-84
2022/12/09 12:04:21;;;;;;;15.63;14.00;;;3.10;89.10;;;;;;4994968;28;20320;-84
2022/12/09 12:06:57;;;;;;;14.37;12.83;;;3.10;87.70;;;;;;4979153;28;20190;-85
2022/12/09 12:09:26;;;;;;;14.73;13.10;;;3.10;89.40;;;;;;4984644;28;20198;-84
2022/12/09 12:12:12;;;;;;;14.90;13.30;;;3.10;89.60;;;;;;4994365;28;20211;-84
2022/12/09 12:14:42;;;;;;;15.30;13.40;;;3.20;89.20;;;;;;4976709;28;20355;-83
2022/12/09 12:17:20;;;;;;;15.17;13.57;;;3.20;86.00;;;;;;4989806;28;20213;-84
2022/12/09 12:19:51;;;;;;;14.43;13.00;;;3.20;85.30;;;;;;4981564;28;20202;-84
2022/12/09 12:23:10;;;;;;;15.23;13.07;;;3.20;86.30;;;;;;4977743;28;20199;-83
2022/12/09 12:26:02;;;;;;;17.17;13.93;;;3.20;85.50;;;;;;4969350;28;20250;-85
2022/12/09 12:28:48;;;;;;;15.43;13.53;;;3.30;86.70;;;;;;4982010;28;20185;-85
2022/12/09 12:31:36;;;;;;;16.00;13.67;;;3.30;87.20;;;;;;4979389;28;20278;-84
2022/12/09 12:34:07;;;;;;;15.67;13.17;;;3.40;86.60;;;;;;4992043;28;20730;-84
2022/12/09 12:36:33;;;;;;;15.20;13.60;;;3.50;85.80;;;;;;4982246;28;20191;-84
2022/12/09 12:39:17;;;;;;;15.10;13.47;;;3.60;85.10;;;;;;4988433;28;20202;-85
2022/12/09 12:42:24;;;;;;;15.30;13.67;;;3.60;84.80;;;;;;4996104;28;20193;-84
2022/12/09 12:48:18;;;;;;;17.47;14.27;;;3.60;83.40;;;;;;4984678;28;20202;-84
2022/12/09 12:50:47;;;;;;;16.67;14.87;;;3.50;83.20;;;;;;4975307;28;20202;-84
2022/12/09 12:53:58;;;;;;;16.90;14.33;;;3.50;84.50;;;;;;4988977;28;20221;-83
2022/12/09 12:56:53;;;;;;;16.77;14.83;;;3.50;85.20;;;;;;4986246;28;20199;-84
2022/12/09 12:59:21;;;;;;;16.83;15.13;;;3.60;84.60;;;;;;4982430;28;20271;-84
2022/12/09 13:01:53;;;;;;;17.07;15.27;;;3.60;83.90;;;;;;4980854;28;20194;-84
2022/12/09 13:04:39;;;;;;;16.63;14.17;;;3.60;83.70;;;;;;4988297;28;20301;-85